AirNav   Air Wisconsin Airman Trainee
 
 314 users online  

55AR Silver Wings Field Airport
Eureka Springs, Arkansas, USA

GOING TO EUREKA SPRINGS?


FAA INFORMATION EFFECTIVE 23 MAY 2019

Location

FAA Identifier: 55AR
Lat/Long: 36-25-47.0000N / 093-41-44.0000W
36-25.783333N / 093-41.733333W
36.4297222 / -93.6955556
(estimated)
Elevation: 1571 ft. / 479 m (estimated)
Variation: 03E (2000)
From city: 3 miles NE of EUREKA SPRINGS, AR
Time zone: UTC -5 (UTC -6 during Standard Time)
Zip code: 72632

Airport Operations

Airport use: Private use. Permission required prior to landing
Activation date: 09/2002
Control tower: no
ARTCC: MEMPHIS CENTER
FSS: JONESBORO FLIGHT SERVICE STATION
Attendance: UNATNDD
Wind indicator: yes
Segmented circle: no

Nearby radio navigation aids

VOR radial/distance  VOR name  Freq  Var
RZCr058/23.3RAZORBACK VORTAC116.4004E
HROr282/24.2HARRISON VOR/DME112.5004E

Airport Services

Runway Information

Runway 16/34

Dimensions: 1900 x 65 ft. / 579 x 20 m
Surface: turf, in good condition
RUNWAY 16  RUNWAY 34
Traffic pattern: rightleft

Airport Ownership and Management from official FAA records

Ownership: Privately-owned
Owner: AVIATION CADET MUSEUM INC
542 CR 2073
EUREKA SPRINGS, AR 72632
Phone (479) 253-2008
OR 479-253-5008.
Manager: ERROL D. SEVERE
542 CR 2073
EUREKA SPRINGS, AR 72632
Phone 479-253-5008

Airport Operational Statistics

Aircraft based on the field: 1
Single engine airplanes: 1
    
Aircraft operations: 48/year *
100% transient general aviation
* for 12-month period ending 31 August 2007

Additional Remarks

RADIO CONTROLLED MODEL ACFT INVOF RY ON THE SE END.
NO LNDGS RY 34. ALL TKOFS WILL BE TO THE N AND ALL LNDGS WILL BE FM THE N.
ALL PILOTS MUST CONTACT AMGR AT 479-253-5008 TO OBTAIN PMSN TO LND.

Instrument Procedures

There are no published instrument procedures at 55AR.

Some nearby airports with instrument procedures:

4M1 - Carroll County Airport (4 nm SE)
94K - Cassville Municipal Airport (19 nm NW)
KROG - Rogers Executive Airport - Carter Field (20 nm W)
H34 - Huntsville Municipal Airport (21 nm S)
KFWB - Branson West Municipal Airport - Emerson Field (21 nm NE)
 
Loc | Ops | Rwys | IFR | FBO | Links
Com | Nav | Svcs | Stats | Notes
Aerial photo
WARNING: Photo may not be current or correct
Aerial photo of 55AR (Silver Wings Field Airport)
Photo taken 08-May-2015
looking southwest.

Do you have a better or more recent aerial photo of Silver Wings Field Airport that you would like to share? If so, please send us your photo.

 
Sectional chart

 
Airport distance calculator
Flying to Silver Wings Field Airport? Find the distance to fly.

From to 55AR

Sunrise and sunset
Times for 18-Jun-2019
 Local
(UTC-5)
 Zulu
(UTC)
Morning civil twilight05:2710:27
Sunrise05:5810:58
Sunset20:3401:34
Evening civil twilight21:0502:05

Current date and time
Zulu (UTC)  18-Jun-2019 08:04:52
Local (UTC-5)  18-Jun-2019 03:04:52
 
METAR
KROG 
19nm W 
180758Z AUTO 00000KT 8SM CLR 18/18 A2995 RMK AO2 SLP130 T01830183 PNO $
KFWB 
21nm NE 
180755Z AUTO 00000KT 1/4SM FG OVC002 18/18 A2995 RMK AO2
KBBG 
25nm E 
180735Z AUTO 00000KT M1/4SM FG OVC001 18/18 A2995 RMK AO2
KVBT 
26nm W 
180756Z AUTO 00000KT 10SM CLR 19/19 A2996 RMK AO2 SLP135 T01940189
KASG 
26nm SW 
180148Z 08003KT 10SM BKN075 21/21 A2993
KHRO 
28nm E 
180753Z AUTO 00000KT 4SM BR BKN002 OVC065 19/19 A2994 RMK AO2 SLP126 T01890189
KXNA 
30nm W 
180753Z AUTO 00000KT 10SM CLR 19/17 A2994 RMK AO2 SLP126 T01890172
KHFJ 
32nm NW 
180755Z AUTO 11003KT 7SM CLR 18/18 A2993 RMK AO2
KFYV 
34nm SW 
180753Z AUTO 00000KT 10SM SCT060 18/18 A2995 RMK AO2 SLP129 T01830178
TAF
KROG 
19nm W 
180520Z 1806/1906 00000KT P6SM BKN060 TEMPO 1809/1813 2SM BR OVC004 FM181400 VRB04KT P6SM BKN050
NOTAMs
Click for the latest NOTAMs
NOTAMs are issued by the DoD/FAA and will open in a separate window not controlled by AirNav.

 

 
 

Things to do: Attractions on or near the airport

  
 Business Name 
 
 Contact 
 
 Services / Description 
 
Distance
 
Comments
  
Aviation Cadet World 479-253-5008
no information available

If you are affiliated with Aviation Cadet World and would like to show here your services, contact info, web link, logo, and more, click here
on airport  
   write
 

Would you like to see your business listed on this page?

 If your business provides an interesting product or service to pilots, flight crews, aircraft, or users of the Silver Wings Field Airport, you should consider listing it here.  To start the listing process, click on the button below
 
Add a business
 

Other Pages about Silver Wings Field Airport

Update a link
 
Copyright © AirNav, LLC. All rights reserved. Privacy Policy  Contact